createdAt,value
2022-10-21T00:00:36.086Z,27.00
2022-10-21T00:03:03.326Z,25.98
2022-10-21T00:05:30.479Z,27.23
2022-10-21T00:07:58.461Z,26.55
2022-10-21T00:10:25.589Z,25.63
2022-10-21T00:12:52.624Z,22.75
2022-10-21T00:15:19.738Z,25.30
2022-10-21T00:17:46.805Z,29.02
2022-10-21T00:20:13.911Z,23.23
2022-10-21T00:22:41.153Z,32.08
2022-10-21T00:25:09.133Z,25.13
2022-10-21T00:27:36.488Z,30.30
2022-10-21T00:30:05.985Z,25.70
2022-10-21T00:32:33.195Z,31.67
2022-10-21T00:35:00.409Z,30.52
2022-10-21T00:37:31.310Z,30.58
2022-10-21T00:39:59.362Z,25.48
2022-10-21T00:42:39.598Z,24.92
2022-10-21T00:45:09.249Z,27.15
2022-10-21T00:47:58.679Z,25.10
2022-10-21T00:50:53.675Z,27.38
2022-10-21T00:53:22.019Z,25.55
2022-10-21T00:55:56.869Z,22.83
2022-10-21T00:58:28.539Z,24.25
2022-10-21T01:00:57.749Z,22.95
2022-10-21T01:03:26.476Z,27.85
2022-10-21T01:05:56.341Z,29.67
2022-10-21T01:08:24.511Z,23.67
2022-10-21T01:10:52.814Z,21.80
2022-10-21T01:13:50.679Z,19.77
2022-10-21T01:16:44.337Z,22.58
2022-10-21T01:19:52.073Z,24.65
2022-10-21T01:25:25.757Z,18.00
2022-10-21T01:28:16.211Z,19.15
2022-10-21T01:30:53.567Z,25.90
2022-10-21T01:33:27.390Z,22.38
2022-10-21T01:38:55.897Z,22.92
2022-10-21T01:41:37.640Z,22.33
2022-10-21T01:44:17.450Z,29.00
2022-10-21T01:46:57.789Z,23.50
2022-10-21T01:49:48.095Z,23.80
2022-10-21T01:52:17.150Z,25.98
2022-10-21T01:54:48.977Z,27.63
2022-10-21T01:57:20.717Z,26.63
2022-10-21T01:59:48.627Z,22.38
2022-10-21T02:02:17.128Z,25.48
2022-10-21T02:04:47.664Z,27.40
2022-10-21T02:07:14.698Z,26.73
2022-10-21T02:09:41.784Z,27.77
2022-10-21T02:12:10.956Z,22.75
2022-10-21T02:15:00.160Z,26.85
2022-10-21T02:17:29.004Z,25.15
2022-10-21T02:20:00.205Z,24.08
2022-10-21T02:22:28.923Z,22.15
2022-10-21T02:25:01.858Z,26.42
2022-10-21T02:27:28.928Z,30.47
2022-10-21T02:30:01.170Z,38.75
2022-10-21T02:32:34.002Z,31.08
2022-10-21T02:35:20.515Z,27.70
2022-10-21T02:37:54.398Z,28.50
2022-10-21T02:40:31.843Z,28.15
2022-10-21T02:43:04.635Z,33.38
2022-10-21T02:45:33.066Z,27.23
2022-10-21T02:48:00.301Z,30.27
2022-10-21T02:50:27.281Z,30.67
2022-10-21T02:52:54.333Z,27.63
2022-10-21T02:55:21.334Z,25.80
2022-10-21T02:57:48.349Z,27.88
2022-10-21T03:00:15.667Z,29.60
2022-10-21T03:02:42.743Z,30.23
2022-10-21T03:05:10.463Z,27.67
2022-10-21T03:07:37.568Z,33.67
2022-10-21T03:10:05.474Z,30.88
2022-10-21T03:12:32.522Z,26.48
2022-10-21T03:14:59.535Z,32.75
2022-10-21T03:17:26.571Z,28.73
2022-10-21T03:19:53.576Z,30.90
2022-10-21T03:22:20.610Z,30.58
2022-10-21T03:24:47.706Z,30.27
2022-10-21T03:27:14.693Z,28.77
2022-10-21T03:29:41.772Z,32.83
2022-10-21T03:32:08.811Z,29.88
2022-10-21T03:34:35.886Z,30.38
2022-10-21T03:37:02.947Z,28.90
2022-10-21T03:39:30.372Z,29.90
2022-10-21T03:41:57.374Z,33.30
2022-10-21T03:44:24.364Z,28.58
2022-10-21T03:46:51.385Z,33.83
2022-10-21T03:49:21.300Z,28.48
2022-10-21T03:51:49.564Z,24.55
2022-10-21T03:54:17.774Z,32.85
2022-10-21T03:56:44.828Z,31.15
2022-10-21T03:59:11.842Z,26.00
2022-10-21T04:01:38.969Z,30.63
2022-10-21T04:04:06.234Z,29.00
2022-10-21T04:06:33.322Z,34.42
2022-10-21T04:09:01.375Z,25.70
2022-10-21T04:11:29.006Z,30.35
2022-10-21T04:13:56.112Z,30.15
2022-10-21T04:16:23.392Z,27.10
2022-10-21T04:18:50.453Z,27.05
2022-10-21T04:21:19.086Z,27.48
2022-10-21T04:23:46.153Z,31.10
2022-10-21T04:26:13.183Z,28.40
2022-10-21T04:28:40.174Z,25.75
2022-10-21T04:31:07.395Z,26.15
2022-10-21T04:33:34.595Z,29.40
2022-10-21T04:36:02.145Z,27.98
2022-10-21T04:38:29.352Z,29.23
2022-10-21T04:40:58.925Z,31.58
2022-10-21T04:43:26.663Z,31.65
2022-10-21T04:45:54.371Z,23.70
2022-10-21T04:48:22.060Z,31.08
2022-10-21T04:50:52.915Z,29.15
2022-10-21T04:53:20.989Z,26.35
2022-10-21T04:55:54.086Z,30.58
2022-10-21T04:58:22.434Z,31.38
2022-10-21T05:00:50.945Z,30.55
2022-10-21T05:03:19.424Z,26.65
2022-10-21T05:05:50.347Z,30.92
2022-10-21T05:08:18.499Z,32.30
2022-10-21T05:10:45.801Z,31.60
2022-10-21T05:13:12.866Z,26.90
2022-10-21T05:15:39.886Z,27.17
2022-10-21T05:18:06.896Z,31.02
2022-10-21T05:20:33.940Z,29.83
2022-10-21T05:23:04.189Z,33.83
2022-10-21T05:25:34.198Z,27.90
2022-10-21T05:28:01.800Z,27.40
2022-10-21T05:30:31.596Z,33.33
2022-10-21T05:32:59.808Z,26.13
2022-10-21T05:35:27.197Z,28.23
2022-10-21T05:37:54.222Z,26.15
2022-10-21T05:40:21.261Z,27.10
2022-10-21T05:42:48.282Z,31.35
2022-10-21T05:45:15.330Z,26.20
2022-10-21T05:47:42.453Z,24.23
2022-10-21T05:50:11.860Z,23.50
2022-10-21T05:52:40.048Z,22.63
2022-10-21T05:55:08.358Z,27.02
2022-10-21T05:57:36.849Z,24.67
2022-10-21T06:00:06.079Z,23.38
2022-10-21T06:02:33.596Z,23.33
2022-10-21T06:05:02.123Z,23.48
2022-10-21T06:07:29.568Z,27.75
2022-10-21T06:09:57.263Z,25.08
2022-10-21T06:12:24.258Z,23.77
2022-10-21T06:14:51.347Z,23.05
2022-10-21T06:17:18.418Z,23.77
2022-10-21T06:19:48.678Z,24.55
2022-10-21T06:22:17.886Z,29.52
2022-10-21T06:24:46.065Z,30.48
2022-10-21T06:27:13.794Z,20.40
2022-10-21T06:29:40.848Z,19.58
2022-10-21T06:32:08.018Z,26.58
2022-10-21T06:34:35.051Z,22.23
2022-10-21T06:37:02.068Z,24.80
2022-10-21T06:39:30.770Z,22.63
2022-10-21T06:41:59.137Z,27.77
2022-10-21T06:44:26.128Z,29.85
2022-10-21T06:46:54.106Z,27.58
2022-10-21T06:49:21.222Z,32.67
2022-10-21T06:51:48.221Z,23.15
2022-10-21T06:54:15.254Z,27.10
2022-10-21T06:56:42.274Z,30.70
2022-10-21T06:59:10.779Z,30.23
2022-10-21T07:02:04.641Z,25.60
2022-10-21T07:04:24.750Z,27.10
2022-10-21T07:06:51.810Z,21.77
2022-10-21T07:09:18.899Z,27.92
2022-10-21T07:11:45.977Z,27.35
2022-10-21T07:14:13.048Z,25.08
2022-10-21T07:16:40.149Z,24.33
2022-10-21T07:19:07.351Z,25.80
2022-10-21T07:21:34.549Z,27.40
2022-10-21T07:24:02.353Z,23.80
2022-10-21T07:26:34.739Z,26.23
2022-10-21T07:29:02.345Z,27.23
2022-10-21T07:31:35.782Z,28.55
2022-10-21T07:39:08.275Z,24.52
2022-10-21T07:41:38.032Z,23.10
2022-10-21T07:44:05.872Z,22.77
2022-10-21T07:46:33.153Z,32.75
2022-10-21T07:49:01.705Z,29.33
2022-10-21T07:51:31.610Z,22.33
2022-10-21T07:54:01.738Z,22.90
2022-10-21T07:56:35.193Z,29.52
2022-10-21T07:59:07.696Z,24.10
2022-10-21T08:01:40.292Z,24.73
2022-10-21T08:04:07.500Z,24.95
2022-10-21T08:06:34.601Z,24.27
2022-10-21T08:09:02.166Z,26.73
2022-10-21T08:11:33.176Z,24.05
2022-10-21T08:14:03.149Z,22.42
2022-10-21T08:16:33.626Z,23.20
2022-10-21T08:19:04.562Z,21.10
2022-10-21T08:21:32.020Z,22.05
2022-10-21T08:24:02.283Z,25.80
2022-10-21T08:26:31.677Z,25.83
2022-10-21T08:31:25.689Z,21.83
2022-10-21T08:33:52.838Z,22.58
2022-10-21T08:36:23.477Z,21.17
2022-10-21T08:38:50.972Z,21.23
2022-10-21T08:41:27.042Z,22.70
2022-10-21T08:44:02.162Z,18.55
2022-10-21T08:46:40.520Z,29.23
2022-10-21T08:49:18.023Z,16.83
2022-10-21T08:51:51.721Z,22.35
2022-10-21T08:54:24.035Z,22.48
2022-10-21T08:56:56.042Z,21.58
2022-10-21T08:59:24.802Z,19.33
2022-10-21T09:01:56.658Z,24.23
2022-10-21T09:04:43.794Z,50.33
2022-10-21T09:07:55.633Z,27.35
2022-10-21T09:10:51.240Z,18.75
2022-10-21T09:13:51.354Z,21.75
2022-10-21T09:16:36.695Z,23.42
2022-10-21T09:19:35.107Z,18.80
2022-10-21T09:22:33.700Z,13.38
2022-10-21T09:25:09.774Z,16.50
2022-10-21T09:27:55.532Z,18.73
2022-10-21T09:30:24.519Z,18.77
2022-10-21T09:32:57.182Z,21.50
2022-10-21T09:35:32.420Z,22.65
2022-10-21T09:38:25.864Z,15.88
2022-10-21T09:41:01.480Z,18.07
2022-10-21T09:43:32.215Z,15.95
2022-10-21T09:46:00.317Z,22.73
2022-10-21T09:49:06.880Z,17.90
2022-10-21T09:51:33.843Z,11.27
2022-10-21T09:54:15.606Z,20.10
2022-10-21T09:57:04.279Z,15.85
2022-10-21T09:59:37.192Z,15.75
2022-10-21T10:02:14.622Z,13.68
2022-10-21T10:04:41.947Z,28.33
2022-10-21T10:07:20.964Z,12.90
2022-10-21T10:09:48.513Z,13.57
2022-10-21T10:12:20.626Z,13.82
2022-10-21T10:14:48.656Z,11.05
2022-10-21T10:17:37.016Z,11.35
2022-10-21T10:20:04.148Z,14.68
2022-10-21T10:22:43.220Z,10.07
2022-10-21T10:25:21.476Z,12.95
2022-10-21T10:27:55.805Z,18.90
2022-10-21T10:30:25.513Z,13.07
2022-10-21T10:32:56.201Z,21.23
2022-10-21T10:35:36.121Z,14.10
2022-10-21T10:38:05.211Z,40.85
2022-10-21T10:40:39.565Z,14.10
2022-10-21T10:43:15.998Z,13.57
2022-10-21T10:45:56.586Z,13.77
2022-10-21T10:48:40.165Z,15.73
2022-10-21T10:51:31.197Z,10.25
2022-10-21T10:54:07.006Z,20.83
2022-10-21T10:56:51.800Z,12.30
2022-10-21T10:59:39.292Z,15.18
2022-10-21T11:02:12.897Z,14.55
2022-10-21T11:04:49.452Z,15.90
2022-10-21T11:07:35.675Z,18.60
2022-10-21T11:10:07.643Z,17.13
2022-10-21T11:12:34.713Z,10.40
2022-10-21T11:15:02.037Z,10.85
2022-10-21T11:17:38.888Z,10.15
2022-10-21T11:20:22.683Z,17.70
2022-10-21T11:23:14.419Z,8.80
2022-10-21T11:26:01.989Z,10.65
2022-10-21T11:28:48.341Z,16.42
2022-10-21T11:31:21.808Z,13.07
2022-10-21T11:34:18.594Z,11.32
2022-10-21T11:36:51.312Z,11.27
2022-10-21T11:39:30.843Z,9.23
2022-10-21T11:42:07.113Z,8.63
2022-10-21T11:45:11.018Z,8.70
2022-10-21T11:47:57.217Z,14.65
2022-10-21T11:50:32.938Z,9.15
2022-10-21T11:53:12.483Z,12.70
2022-10-21T11:55:47.720Z,7.20
2022-10-21T11:58:32.618Z,4.45
2022-10-21T12:01:32.928Z,6.35
2022-10-21T12:04:29.434Z,7.40
2022-10-21T12:07:08.933Z,8.20
2022-10-21T12:09:49.244Z,5.03
2022-10-21T12:12:21.555Z,9.43
2022-10-21T12:14:57.912Z,5.47
2022-10-21T12:17:26.041Z,4.65
2022-10-21T12:20:15.807Z,4.65
2022-10-21T12:22:43.750Z,3.95
2022-10-21T12:25:13.416Z,4.13
2022-10-21T12:27:52.294Z,3.83
2022-10-21T12:30:25.053Z,3.90
2022-10-21T12:33:00.641Z,6.60
2022-10-21T12:38:40.205Z,6.65
2022-10-21T12:41:34.645Z,9.35
2022-10-21T12:44:01.728Z,4.63
2022-10-21T12:46:37.516Z,4.57
2022-10-21T12:49:19.011Z,4.53
2022-10-21T12:51:55.785Z,7.47
2022-10-21T12:54:41.579Z,16.13
2022-10-21T12:57:11.441Z,3.85
2022-10-21T12:59:43.431Z,8.05
2022-10-21T13:02:24.284Z,3.95
2022-10-21T13:04:53.833Z,4.65
2022-10-21T13:07:34.816Z,10.82
2022-10-21T13:10:01.789Z,5.68
2022-10-21T13:12:32.613Z,4.95
2022-10-21T13:15:22.230Z,8.27
2022-10-21T13:17:57.197Z,9.18
2022-10-21T13:20:25.174Z,4.88
2022-10-21T13:23:01.981Z,5.07
2022-10-21T13:25:35.230Z,4.88
2022-10-21T13:28:17.826Z,4.78
2022-10-21T13:30:50.605Z,5.50
2022-10-21T13:33:22.703Z,4.43
2022-10-21T13:35:53.985Z,5.50
2022-10-21T13:38:33.314Z,3.35
2022-10-21T13:41:07.112Z,4.00
2022-10-21T13:43:44.853Z,5.32
2022-10-21T13:46:21.424Z,4.28
2022-10-21T13:48:49.042Z,8.38
2022-10-21T13:51:45.160Z,3.88
2022-10-21T13:54:14.995Z,5.10
2022-10-21T13:56:43.126Z,7.15
2022-10-21T13:59:34.533Z,5.32
2022-10-21T14:02:03.605Z,3.90
2022-10-21T14:04:33.962Z,3.38
2022-10-21T14:07:06.136Z,5.80
2022-10-21T14:09:40.206Z,2.88
2022-10-21T14:12:25.378Z,9.73
2022-10-21T14:14:55.818Z,5.43
2022-10-21T14:17:25.831Z,3.83
2022-10-21T14:20:07.690Z,3.90
2022-10-21T14:22:34.807Z,6.22
2022-10-21T14:25:02.978Z,5.20
2022-10-21T14:27:33.576Z,3.28
2022-10-21T14:30:07.252Z,7.22
2022-10-21T14:35:26.598Z,3.33
2022-10-21T14:37:59.102Z,2.70
2022-10-21T14:40:39.505Z,5.30
2022-10-21T14:43:12.158Z,2.38
2022-10-21T14:45:46.539Z,2.63
2022-10-21T14:48:36.711Z,3.70
2022-10-21T14:51:08.405Z,3.40
2022-10-21T14:53:57.228Z,5.45
2022-10-21T14:56:40.276Z,6.45
2022-10-21T14:59:21.983Z,4.77
2022-10-21T15:01:49.418Z,3.83
2022-10-21T15:05:01.665Z,2.88
2022-10-21T15:07:34.567Z,9.82
2022-10-21T15:10:04.369Z,3.10
2022-10-21T15:12:41.570Z,5.22
2022-10-21T15:15:39.914Z,2.78
2022-10-21T15:18:23.467Z,5.70
2022-10-21T15:21:02.569Z,6.72
2022-10-21T15:23:37.722Z,6.03
2022-10-21T15:26:32.670Z,4.25
2022-10-21T15:29:11.539Z,6.03
2022-10-21T15:31:38.674Z,2.22
2022-10-21T15:34:06.290Z,3.78
2022-10-21T15:36:33.292Z,3.70
2022-10-21T15:39:05.336Z,2.75
2022-10-21T15:41:35.564Z,5.55
2022-10-21T15:44:14.635Z,2.47
2022-10-21T15:46:46.327Z,3.42
2022-10-21T15:49:22.392Z,3.72
2022-10-21T15:51:50.459Z,2.47
2022-10-21T15:54:18.970Z,4.75
2022-10-21T15:56:49.570Z,2.97
2022-10-21T15:59:23.112Z,4.45
2022-10-21T16:01:51.136Z,10.52
2022-10-21T16:04:18.728Z,3.88
2022-10-21T16:06:49.909Z,3.28
2022-10-21T16:09:23.046Z,3.28
2022-10-21T16:11:59.525Z,6.15
2022-10-21T16:14:33.184Z,7.03
2022-10-21T16:17:03.011Z,3.92
2022-10-21T16:19:31.764Z,8.02
2022-10-21T16:21:58.772Z,2.75
2022-10-21T16:24:26.860Z,4.30
2022-10-21T16:26:53.912Z,2.60
2022-10-21T16:29:24.097Z,4.65
2022-10-21T16:31:51.983Z,3.55
2022-10-21T16:34:19.342Z,4.25
2022-10-21T16:36:46.672Z,6.68
2022-10-21T16:39:15.888Z,6.25
2022-10-21T16:41:42.913Z,5.45
2022-10-21T16:44:10.073Z,5.93
2022-10-21T16:46:46.385Z,5.65
2022-10-21T16:49:15.818Z,6.32
2022-10-21T16:51:45.914Z,6.57
2022-10-21T16:54:13.300Z,7.45
2022-10-21T16:56:40.461Z,5.38
2022-10-21T16:59:07.972Z,5.57
2022-10-21T17:01:35.109Z,8.35
2022-10-21T17:04:02.164Z,13.75
2022-10-21T17:06:31.500Z,11.65
2022-10-21T17:08:58.613Z,8.13
2022-10-21T17:11:38.053Z,6.38
2022-10-21T17:14:08.003Z,11.13
2022-10-21T17:16:35.046Z,8.70
2022-10-21T17:19:02.251Z,10.18
2022-10-21T17:21:32.429Z,14.52
2022-10-21T17:24:02.332Z,16.75
2022-10-21T17:26:31.765Z,12.88
2022-10-21T17:28:58.812Z,16.50
2022-10-21T17:31:28.504Z,13.68
2022-10-21T17:33:58.328Z,13.35
2022-10-21T17:36:25.331Z,14.98
2022-10-21T17:38:53.077Z,14.00
2022-10-21T17:41:20.474Z,15.30
2022-10-21T17:43:48.009Z,16.65
2022-10-21T17:46:19.988Z,22.45
2022-10-21T17:48:51.065Z,21.58
2022-10-21T17:51:18.908Z,24.50
2022-10-21T17:53:49.861Z,19.25
2022-10-21T17:56:16.997Z,22.05
2022-10-21T17:58:44.138Z,20.10
2022-10-21T18:01:13.343Z,25.35
2022-10-21T18:03:40.488Z,25.17
2022-10-21T18:06:10.674Z,21.70
2022-10-21T18:08:37.842Z,17.73
2022-10-21T18:11:14.408Z,26.33
2022-10-21T18:13:42.209Z,26.17
2022-10-21T18:16:14.098Z,23.27
2022-10-21T18:21:19.243Z,25.70
2022-10-21T18:23:49.283Z,28.50
2022-10-21T18:26:19.912Z,34.08
2022-10-21T18:28:51.471Z,31.05
2022-10-21T18:31:21.042Z,26.80
2022-10-21T18:33:48.787Z,28.08
2022-10-21T18:36:18.063Z,25.10
2022-10-21T18:38:45.114Z,23.88
2022-10-21T18:41:20.428Z,25.13
2022-10-21T18:43:51.452Z,23.90
2022-10-21T18:46:19.721Z,26.92
2022-10-21T18:48:47.543Z,29.40
2022-10-21T18:51:16.436Z,25.90
2022-10-21T18:53:46.115Z,24.90
2022-10-21T18:56:16.793Z,25.15
2022-10-21T18:58:44.649Z,27.65
2022-10-21T19:01:15.284Z,21.40
2022-10-21T19:03:43.683Z,25.27
2022-10-21T19:06:18.253Z,26.42
2022-10-21T19:08:46.990Z,55.80
2022-10-21T19:11:14.368Z,36.33
2022-10-21T19:13:41.624Z,71.38
2022-10-21T19:16:09.159Z,21.50
2022-10-21T19:18:36.495Z,29.40
2022-10-21T19:21:04.877Z,26.80
2022-10-21T19:23:33.716Z,33.17
2022-10-21T19:26:06.180Z,24.08
2022-10-21T19:28:35.228Z,22.80
2022-10-21T19:31:02.546Z,21.15
2022-10-21T19:33:33.243Z,16.48
2022-10-21T19:36:04.809Z,14.20
2022-10-21T19:38:50.521Z,20.35
2022-10-21T19:41:22.261Z,11.52
2022-10-21T19:43:51.752Z,43.20
2022-10-21T19:46:24.851Z,41.50
2022-10-21T19:48:53.886Z,36.22
2022-10-21T19:51:23.312Z,18.42
2022-10-21T19:53:51.234Z,9.38
2022-10-21T19:56:22.265Z,8.55
2022-10-21T19:58:53.101Z,10.10
2022-10-21T20:01:25.704Z,7.85
2022-10-21T20:03:53.814Z,8.45
2022-10-21T20:06:30.576Z,9.32
2022-10-21T20:09:01.824Z,13.68
2022-10-21T20:11:31.984Z,8.65
2022-10-21T20:14:00.754Z,11.95
2022-10-21T20:16:36.365Z,6.03
2022-10-21T20:19:05.527Z,7.70
2022-10-21T20:21:34.460Z,5.50
2022-10-21T20:24:02.280Z,5.85
2022-10-21T20:26:31.839Z,5.22
2022-10-21T20:29:01.921Z,7.53
2022-10-21T20:31:30.980Z,6.65
2022-10-21T20:33:58.016Z,8.85
2022-10-21T20:36:34.939Z,8.40
2022-10-21T20:39:03.127Z,6.90
2022-10-21T20:41:34.599Z,6.35
2022-10-21T20:44:03.316Z,7.15
2022-10-21T20:46:36.003Z,7.43
2022-10-21T20:49:06.752Z,15.57
2022-10-21T20:51:34.881Z,6.57
2022-10-21T20:54:08.047Z,8.75
2022-10-21T20:56:39.738Z,7.93
2022-10-21T20:59:08.998Z,7.60
2022-10-21T21:01:41.891Z,6.50
2022-10-21T21:04:12.471Z,9.60
2022-10-21T21:06:44.661Z,10.30
2022-10-21T21:12:04.400Z,10.15
2022-10-21T21:14:32.452Z,10.15
2022-10-21T21:16:59.766Z,7.32
2022-10-21T21:19:27.502Z,9.63
2022-10-21T21:21:54.640Z,8.55
2022-10-21T21:24:21.730Z,9.75
2022-10-21T21:26:48.837Z,8.20
2022-10-21T21:29:15.847Z,7.70
2022-10-21T21:31:43.691Z,7.85
2022-10-21T21:34:11.024Z,5.97
2022-10-21T21:36:38.052Z,7.50
2022-10-21T21:39:06.589Z,9.23
2022-10-21T21:41:34.533Z,6.65
2022-10-21T21:44:01.947Z,10.07
2022-10-21T21:46:29.388Z,6.82
2022-10-21T21:49:05.136Z,6.45
2022-10-21T21:51:34.496Z,7.32
2022-10-21T21:54:03.498Z,5.30
2022-10-21T21:56:31.891Z,6.40
2022-10-21T21:59:00.936Z,7.57
2022-10-21T22:01:31.350Z,6.25
2022-10-21T22:03:58.591Z,8.45
2022-10-21T22:06:28.535Z,7.25
2022-10-21T22:08:55.872Z,7.90
2022-10-21T22:11:26.017Z,8.80
2022-10-21T22:13:53.758Z,6.97
2022-10-21T22:16:24.166Z,7.65
2022-10-21T22:18:51.377Z,11.70
2022-10-21T22:21:19.084Z,5.97
2022-10-21T22:23:47.951Z,7.57
2022-10-21T22:26:16.160Z,6.00
2022-10-21T22:28:43.624Z,9.40
2022-10-21T22:31:13.530Z,8.00
2022-10-21T22:33:41.507Z,6.13
2022-10-21T22:36:08.891Z,5.40
2022-10-21T22:38:36.206Z,6.43
2022-10-21T22:41:07.144Z,5.75
2022-10-21T22:43:36.879Z,4.90
2022-10-21T22:46:09.868Z,9.43
2022-10-21T22:48:49.044Z,6.50
2022-10-21T22:51:16.072Z,8.98
2022-10-21T22:53:43.060Z,6.63
2022-10-21T22:56:10.562Z,7.65
2022-10-21T22:58:37.710Z,6.35
2022-10-21T23:01:09.683Z,8.70
2022-10-21T23:03:36.806Z,7.00
2022-10-21T23:06:04.061Z,5.22
2022-10-21T23:08:32.401Z,6.30
2022-10-21T23:11:01.252Z,5.53
2022-10-21T23:13:28.255Z,6.80
2022-10-21T23:15:55.346Z,5.72
2022-10-21T23:18:22.360Z,6.95
2022-10-21T23:20:49.427Z,4.85
2022-10-21T23:23:16.483Z,6.25
2022-10-21T23:25:43.817Z,9.50
2022-10-21T23:28:11.046Z,9.10
2022-10-21T23:30:38.615Z,10.70
2022-10-21T23:33:05.641Z,7.32
2022-10-21T23:35:32.668Z,10.15
2022-10-21T23:38:00.727Z,6.25
2022-10-21T23:40:27.971Z,6.97
2022-10-21T23:42:55.142Z,7.82
2022-10-21T23:45:22.459Z,8.15
2022-10-21T23:47:49.537Z,7.28
2022-10-21T23:50:16.668Z,10.13
2022-10-21T23:52:43.675Z,6.68
2022-10-21T23:55:11.056Z,7.45
2022-10-21T23:57:38.301Z,5.85
